createdAt,value
2018-11-11T00:02:05.543Z,24.98
2018-11-11T00:04:39.401Z,23.30
2018-11-11T00:07:09.135Z,23.40
2018-11-11T00:09:40.296Z,23.20
2018-11-11T00:12:10.544Z,26.48
2018-11-11T00:14:43.400Z,19.60
2018-11-11T00:17:14.693Z,24.50
2018-11-11T00:19:43.937Z,24.10
2018-11-11T00:22:14.424Z,25.75
2018-11-11T00:24:44.269Z,24.55
2018-11-11T00:27:15.518Z,21.48
2018-11-11T00:29:44.749Z,20.45
2018-11-11T00:32:15.621Z,23.27
2018-11-11T00:34:45.190Z,22.65
2018-11-11T00:37:14.462Z,26.60
2018-11-11T00:39:45.874Z,25.90
2018-11-11T00:42:15.420Z,29.12
2018-11-11T00:44:44.932Z,25.52
2018-11-11T00:47:15.424Z,32.42
2018-11-11T00:49:45.287Z,30.45
2018-11-11T00:52:14.744Z,34.65
2018-11-11T00:54:44.223Z,31.40
2018-11-11T00:57:15.250Z,26.30
2018-11-11T00:59:45.638Z,35.78
2018-11-11T01:02:16.402Z,37.33
2018-11-11T01:04:46.589Z,29.45
2018-11-11T01:07:17.004Z,33.95
2018-11-11T01:09:51.363Z,34.67
2018-11-11T01:12:22.044Z,32.20
2018-11-11T01:14:54.398Z,29.35
2018-11-11T01:17:24.960Z,25.45
2018-11-11T01:19:55.683Z,33.40
2018-11-11T01:22:30.148Z,28.62
2018-11-11T01:25:02.336Z,27.00
2018-11-11T01:27:33.954Z,33.65
2018-11-11T01:30:08.011Z,30.43
2018-11-11T01:32:38.774Z,26.33
2018-11-11T01:35:14.363Z,34.85
2018-11-11T01:37:46.948Z,30.77
2018-11-11T01:40:16.393Z,33.48
2018-11-11T01:42:46.640Z,34.00
2018-11-11T01:45:18.897Z,34.67
2018-11-11T01:47:52.924Z,28.83
2018-11-11T01:50:24.121Z,34.48
2018-11-11T01:52:54.138Z,33.28
2018-11-11T01:55:29.269Z,31.60
2018-11-11T01:58:00.280Z,30.85
2018-11-11T02:00:31.523Z,29.42
2018-11-11T02:03:01.129Z,36.77
2018-11-11T02:05:31.753Z,35.28
2018-11-11T02:08:02.786Z,35.65
2018-11-11T02:10:35.302Z,27.25
2018-11-11T02:13:05.351Z,30.32
2018-11-11T02:15:36.354Z,27.60
2018-11-11T02:18:08.428Z,34.38
2018-11-11T02:20:38.539Z,27.00
2018-11-11T02:23:10.414Z,26.77
2018-11-11T02:25:43.563Z,30.37
2018-11-11T02:28:12.838Z,28.92
2018-11-11T02:30:49.215Z,24.80
2018-11-11T02:33:20.353Z,31.07
2018-11-11T02:35:51.328Z,28.15
2018-11-11T02:38:22.638Z,27.82
2018-11-11T02:40:52.837Z,34.43
2018-11-11T02:43:24.031Z,34.03
2018-11-11T02:45:56.078Z,40.20
2018-11-11T02:48:28.602Z,30.77
2018-11-11T02:50:58.372Z,28.70
2018-11-11T02:53:32.031Z,28.23
2018-11-11T02:56:05.724Z,28.90
2018-11-11T02:58:40.216Z,25.95
2018-11-11T03:01:12.219Z,20.95
2018-11-11T03:03:42.024Z,22.35
2018-11-11T03:06:13.066Z,26.48
2018-11-11T03:08:43.587Z,25.37
2018-11-11T03:11:14.732Z,26.40
2018-11-11T03:13:44.705Z,23.92
2018-11-11T03:16:16.368Z,20.75
2018-11-11T03:18:45.833Z,20.48
2018-11-11T03:21:15.630Z,28.05
2018-11-11T03:23:47.099Z,21.65
2018-11-11T03:26:21.187Z,27.32
2018-11-11T03:28:51.453Z,23.57
2018-11-11T03:31:21.358Z,23.73
2018-11-11T03:33:51.586Z,22.75
2018-11-11T03:36:21.548Z,23.70
2018-11-11T03:38:56.819Z,27.60
2018-11-11T03:41:26.893Z,25.50
2018-11-11T03:43:58.663Z,29.77
2018-11-11T03:46:30.133Z,28.38
2018-11-11T03:49:00.830Z,24.52
2018-11-11T03:51:30.293Z,25.30
2018-11-11T03:54:01.044Z,30.72
2018-11-11T03:56:31.510Z,23.35
2018-11-11T03:59:03.119Z,25.45
2018-11-11T04:01:33.310Z,21.97
2018-11-11T04:04:10.203Z,19.25
2018-11-11T04:06:42.490Z,22.73
2018-11-11T04:09:12.876Z,24.00
2018-11-11T04:11:44.331Z,21.55
2018-11-11T04:14:18.003Z,21.68
2018-11-11T04:16:49.988Z,22.20
2018-11-11T04:19:22.228Z,23.67
2018-11-11T04:22:03.980Z,22.73
2018-11-11T04:24:35.510Z,18.73
2018-11-11T04:27:07.474Z,22.15
2018-11-11T04:29:38.489Z,21.27
2018-11-11T04:34:46.413Z,20.48
2018-11-11T04:37:17.289Z,25.35
2018-11-11T04:39:48.444Z,21.45
2018-11-11T04:42:23.226Z,23.22
2018-11-11T04:44:56.231Z,21.57
2018-11-11T04:47:30.777Z,24.02
2018-11-11T04:50:11.354Z,22.50
2018-11-11T04:52:42.403Z,28.07
2018-11-11T04:55:12.236Z,23.30
2018-11-11T04:57:45.075Z,21.48
2018-11-11T05:00:15.280Z,25.85
2018-11-11T05:02:45.756Z,21.05
2018-11-11T05:05:23.130Z,17.10
2018-11-11T05:07:57.472Z,23.77
2018-11-11T05:10:28.864Z,23.62
2018-11-11T05:13:00.271Z,26.57
2018-11-11T05:15:35.159Z,24.43
2018-11-11T05:18:08.714Z,22.82
2018-11-11T05:20:43.138Z,24.60
2018-11-11T05:27:16.759Z,24.82
2018-11-11T05:29:50.251Z,25.10
2018-11-11T05:56:11.651Z,16.25
2018-11-11T06:04:18.915Z,18.90
2018-11-11T06:35:39.445Z,19.62
2018-11-11T06:38:14.095Z,17.15
2018-11-11T06:43:45.813Z,11.08
2018-11-11T06:46:15.874Z,9.25
2018-11-11T06:48:46.080Z,9.60
2018-11-11T06:51:15.571Z,13.32
2018-11-11T06:53:45.098Z,11.30
2018-11-11T06:56:14.614Z,13.75
2018-11-11T06:58:45.948Z,13.95
2018-11-11T07:01:15.219Z,11.48
2018-11-11T07:03:52.667Z,14.43
2018-11-11T07:06:23.006Z,14.18
2018-11-11T07:08:52.873Z,14.25
2018-11-11T07:11:23.348Z,12.45
2018-11-11T07:13:53.033Z,13.90
2018-11-11T07:16:22.628Z,11.97
2018-11-11T07:18:52.039Z,16.20
2018-11-11T07:21:21.565Z,17.02
2018-11-11T07:23:51.160Z,14.20
2018-11-11T07:26:24.697Z,17.77
2018-11-11T07:28:56.479Z,18.60
2018-11-11T07:31:26.305Z,13.62
2018-11-11T07:34:00.697Z,19.73
2018-11-11T07:36:35.337Z,17.90
2018-11-11T07:39:11.916Z,16.95
2018-11-11T07:41:42.366Z,18.73
2018-11-11T07:44:23.861Z,17.75
2018-11-11T07:47:00.134Z,17.57
2018-11-11T07:49:35.724Z,15.93
2018-11-11T07:52:06.674Z,15.25
2018-11-11T07:54:37.799Z,15.53
2018-11-11T07:57:08.289Z,15.35
2018-11-11T07:59:41.413Z,16.90
2018-11-11T08:02:11.037Z,16.73
2018-11-11T08:04:40.282Z,14.10
2018-11-11T08:07:09.741Z,14.93
2018-11-11T08:09:39.269Z,20.08
2018-11-11T08:12:08.742Z,13.72
2018-11-11T08:14:42.520Z,14.68
2018-11-11T08:17:12.882Z,17.25
2018-11-11T08:19:43.013Z,16.32
2018-11-11T08:22:12.299Z,14.55
2018-11-11T08:24:41.682Z,16.05
2018-11-11T08:27:15.812Z,16.40
2018-11-11T08:29:45.264Z,15.53
2018-11-11T08:32:16.655Z,14.13
2018-11-11T08:34:48.323Z,11.60
2018-11-11T08:37:18.165Z,14.75
2018-11-11T08:39:47.820Z,13.10
2018-11-11T08:42:18.172Z,9.35
2018-11-11T08:44:57.133Z,10.80
2018-11-11T08:47:33.477Z,11.63
2018-11-11T08:50:10.048Z,9.78
2018-11-11T08:52:46.035Z,9.23
2018-11-11T08:55:18.911Z,8.43
2018-11-11T08:57:53.178Z,8.45
2018-11-11T09:00:22.422Z,6.75
2018-11-11T09:03:00.632Z,5.53
2018-11-11T09:05:33.143Z,5.40
2018-11-11T09:08:02.352Z,6.10
2018-11-11T09:10:31.588Z,5.40
2018-11-11T09:13:01.235Z,5.22
2018-11-11T09:15:30.541Z,4.03
2018-11-11T09:18:00.648Z,4.35
2018-11-11T09:20:30.140Z,5.17
2018-11-11T09:23:00.539Z,3.20
2018-11-11T09:25:30.984Z,3.67
2018-11-11T09:28:00.555Z,5.47
2018-11-11T09:30:30.043Z,4.12
2018-11-11T09:33:00.334Z,4.62
2018-11-11T09:35:30.418Z,3.47
2018-11-11T09:38:07.289Z,2.80
2018-11-11T09:40:37.904Z,2.80
2018-11-11T09:43:09.423Z,3.00
2018-11-11T09:45:38.952Z,2.05
2018-11-11T09:48:08.432Z,2.85
2018-11-11T09:50:38.287Z,1.90
2018-11-11T09:53:08.687Z,2.40
2018-11-11T09:55:38.184Z,5.25
2018-11-11T09:58:07.457Z,2.90
2018-11-11T10:00:36.996Z,2.67
2018-11-11T10:03:12.060Z,3.52
2018-11-11T10:05:46.564Z,1.72
2018-11-11T10:08:30.149Z,2.08
2018-11-11T10:11:04.047Z,1.95
2018-11-11T10:13:38.159Z,4.62
2018-11-11T10:16:15.358Z,1.72
2018-11-11T10:18:48.952Z,2.15
2018-11-11T10:21:25.035Z,2.20
2018-11-11T10:24:04.192Z,2.27
2018-11-11T10:26:42.421Z,2.15
2018-11-11T10:29:35.880Z,2.42
2018-11-11T10:32:20.009Z,2.50
2018-11-11T10:36:57.484Z,1.85
2018-11-11T10:39:34.645Z,2.35
2018-11-11T10:42:13.290Z,3.40
2018-11-11T10:44:47.987Z,1.80
2018-11-11T10:47:24.074Z,1.87
2018-11-11T10:49:59.594Z,1.65
2018-11-11T10:52:29.342Z,1.55
2018-11-11T10:55:02.734Z,1.52
2018-11-11T10:57:32.104Z,1.80
2018-11-11T11:00:02.006Z,1.35
2018-11-11T11:02:37.467Z,1.25
2018-11-11T11:05:11.321Z,1.30
2018-11-11T11:07:40.794Z,1.90
2018-11-11T11:10:10.159Z,1.10
2018-11-11T11:12:40.270Z,2.12
2018-11-11T11:15:11.858Z,2.58
2018-11-11T11:17:45.243Z,1.95
2018-11-11T11:20:14.477Z,1.02
2018-11-11T11:22:43.735Z,1.45
2018-11-11T11:25:13.822Z,0.95
2018-11-11T11:27:43.190Z,1.37
2018-11-11T11:30:13.638Z,1.30
2018-11-11T11:32:42.874Z,1.95
2018-11-11T11:35:13.680Z,1.07
2018-11-11T11:37:43.698Z,0.95
2018-11-11T11:40:17.063Z,1.42
2018-11-11T11:42:47.419Z,2.75
2018-11-11T11:45:17.890Z,1.87
2018-11-11T11:47:47.240Z,1.40
2018-11-11T11:50:16.767Z,1.07
2018-11-11T11:52:46.135Z,2.25
2018-11-11T11:55:17.501Z,1.25
2018-11-11T11:57:57.939Z,1.35
2018-11-11T12:00:27.186Z,2.67
2018-11-11T12:02:56.508Z,1.10
2018-11-11T12:05:26.969Z,1.05
2018-11-11T12:07:56.165Z,1.70
2018-11-11T12:10:25.572Z,1.20
2018-11-11T12:12:54.801Z,0.85
2018-11-11T12:15:25.072Z,0.50
2018-11-11T12:17:55.249Z,0.88
2018-11-11T12:20:24.955Z,1.47
2018-11-11T12:22:54.609Z,0.88
2018-11-11T12:25:27.186Z,0.62
2018-11-11T12:27:59.671Z,1.57
2018-11-11T12:30:29.648Z,0.80
2018-11-11T12:32:59.240Z,0.95
2018-11-11T12:35:28.649Z,0.75
2018-11-11T12:37:59.033Z,0.90
2018-11-11T12:40:37.902Z,1.65
2018-11-11T12:43:07.972Z,0.82
2018-11-11T12:45:37.963Z,1.80
2018-11-11T12:48:07.217Z,0.85
2018-11-11T12:50:37.235Z,2.55
2018-11-11T12:53:07.325Z,0.98
2018-11-11T12:55:37.583Z,0.60
2018-11-11T12:58:07.046Z,0.80
2018-11-11T13:00:36.443Z,0.95
2018-11-11T13:03:05.765Z,0.98
2018-11-11T13:05:37.026Z,0.80
2018-11-11T13:08:07.055Z,0.68
2018-11-11T13:10:36.350Z,0.50
2018-11-11T13:13:06.300Z,1.12
2018-11-11T13:15:38.433Z,1.77
2018-11-11T13:18:08.498Z,0.60
2018-11-11T13:20:39.974Z,2.67
2018-11-11T13:23:09.363Z,1.67
2018-11-11T13:25:43.303Z,2.95
2018-11-11T13:28:12.582Z,2.65
2018-11-11T13:30:41.839Z,1.65
2018-11-11T13:33:11.328Z,1.12
2018-11-11T13:35:41.513Z,0.70
2018-11-11T13:38:10.829Z,1.22
2018-11-11T13:40:40.820Z,2.15
2018-11-11T13:43:10.595Z,1.45
2018-11-11T13:45:43.788Z,1.07
2018-11-11T13:48:13.271Z,3.15
2018-11-11T13:50:43.040Z,1.40
2018-11-11T13:53:12.443Z,1.65
2018-11-11T13:55:44.887Z,1.52
2018-11-11T13:58:14.689Z,0.98
2018-11-11T14:00:46.823Z,1.15
2018-11-11T14:03:17.705Z,0.85
2018-11-11T14:05:48.581Z,1.65
2018-11-11T14:08:18.322Z,1.40
2018-11-11T14:10:48.770Z,1.20
2018-11-11T14:13:18.127Z,1.67
2018-11-11T14:15:48.752Z,0.78
2018-11-11T14:18:18.873Z,3.12
2018-11-11T14:20:49.856Z,1.60
2018-11-11T14:23:19.413Z,1.15
2018-11-11T14:25:48.930Z,1.50
2018-11-11T14:28:19.387Z,1.62
2018-11-11T14:30:48.681Z,1.65
2018-11-11T14:33:17.971Z,1.62
2018-11-11T14:35:50.742Z,2.12
2018-11-11T14:38:21.899Z,1.35
2018-11-11T14:40:54.559Z,1.47
2018-11-11T14:43:24.485Z,1.30
2018-11-11T14:45:57.917Z,2.05
2018-11-11T14:48:27.613Z,1.15
2018-11-11T14:50:58.301Z,2.33
2018-11-11T14:53:28.187Z,3.62
2018-11-11T14:56:04.139Z,1.02
2018-11-11T14:58:33.767Z,1.32
2018-11-11T15:01:03.018Z,1.45
2018-11-11T15:03:32.321Z,3.80
2018-11-11T15:06:02.027Z,3.22
2018-11-11T15:08:31.457Z,2.15
2018-11-11T15:11:00.979Z,1.40
2018-11-11T15:13:31.105Z,2.30
2018-11-11T15:16:02.235Z,1.62
2018-11-11T15:18:32.163Z,3.92
2018-11-11T15:21:02.503Z,2.00
2018-11-11T15:23:33.096Z,2.62
2018-11-11T15:26:02.795Z,3.12
2018-11-11T15:28:33.119Z,3.80
2018-11-11T15:31:06.594Z,4.12
2018-11-11T15:33:36.090Z,4.45
2018-11-11T15:36:07.034Z,2.72
2018-11-11T15:38:36.688Z,4.55
2018-11-11T15:41:06.164Z,3.37
2018-11-11T15:43:36.222Z,2.98
2018-11-11T15:46:06.796Z,2.83
2018-11-11T15:48:36.886Z,2.27
2018-11-11T15:51:06.313Z,2.50
2018-11-11T15:53:36.835Z,2.70
2018-11-11T15:56:09.463Z,2.75
2018-11-11T15:58:39.143Z,3.50
2018-11-11T16:02:25.220Z,1.98
2018-11-11T16:04:57.646Z,3.05
2018-11-11T16:07:27.160Z,2.40
2018-11-11T16:09:57.421Z,2.83
2018-11-11T16:12:28.051Z,3.90
2018-11-11T16:15:09.115Z,2.30
2018-11-11T16:17:40.009Z,4.60
2018-11-11T16:20:13.668Z,3.95
2018-11-11T16:22:44.392Z,6.12
2018-11-11T16:25:14.608Z,4.65
2018-11-11T16:27:46.902Z,5.42
2018-11-11T16:30:18.767Z,2.75
2018-11-11T16:32:49.720Z,2.40
2018-11-11T16:35:21.624Z,10.82
2018-11-11T16:37:52.004Z,5.03
2018-11-11T16:40:24.399Z,7.17
2018-11-11T16:42:54.540Z,7.22
2018-11-11T16:45:38.647Z,9.70
2018-11-11T16:48:08.346Z,8.80
2018-11-11T16:50:40.231Z,3.50
2018-11-11T16:53:10.558Z,2.40
2018-11-11T16:55:40.579Z,2.45
2018-11-11T16:58:10.458Z,6.00
2018-11-11T17:00:39.738Z,5.37
2018-11-11T17:03:10.002Z,5.00
2018-11-11T17:05:45.353Z,4.85
2018-11-11T17:08:21.004Z,3.58
2018-11-11T17:10:50.921Z,6.45
2018-11-11T17:13:20.493Z,1.75
2018-11-11T17:15:52.252Z,1.70
2018-11-11T17:18:21.803Z,3.10
2018-11-11T17:20:52.065Z,3.85
2018-11-11T17:23:22.028Z,2.30
2018-11-11T17:25:52.309Z,3.15
2018-11-11T17:28:23.449Z,2.55
2018-11-11T17:30:53.679Z,10.30
2018-11-11T17:33:25.312Z,13.83
2018-11-11T17:35:55.749Z,14.90
2018-11-11T17:38:27.181Z,14.85
2018-11-11T17:40:56.599Z,12.85
2018-11-11T17:43:25.947Z,11.15
2018-11-11T17:45:56.157Z,17.95
2018-11-11T17:48:25.847Z,10.10
2018-11-11T17:50:55.241Z,8.65
2018-11-11T17:53:25.597Z,11.33
2018-11-11T17:55:56.947Z,9.10
2018-11-11T17:58:27.040Z,10.88
2018-11-11T18:00:56.936Z,7.10
2018-11-11T18:03:26.563Z,25.00
2018-11-11T18:05:59.254Z,14.73
2018-11-11T18:08:33.644Z,10.15
2018-11-11T18:11:06.780Z,7.70
2018-11-11T18:13:36.110Z,8.70
2018-11-11T18:16:06.825Z,9.15
2018-11-11T18:18:37.189Z,9.08
2018-11-11T18:21:07.821Z,6.72
2018-11-11T18:23:39.291Z,6.80
2018-11-11T18:26:11.549Z,6.58
2018-11-11T18:28:41.879Z,8.63
2018-11-11T18:31:12.306Z,8.50
2018-11-11T18:33:43.559Z,7.33
2018-11-11T18:36:15.611Z,7.47
2018-11-11T18:38:45.110Z,8.98
2018-11-11T18:41:15.757Z,9.28
2018-11-11T18:43:46.967Z,9.13
2018-11-11T18:46:16.955Z,14.10
2018-11-11T18:48:47.136Z,11.60
2018-11-11T18:51:16.735Z,10.55
2018-11-11T18:53:46.403Z,10.03
2018-11-11T18:56:16.074Z,9.80
2018-11-11T18:58:46.328Z,9.03
2018-11-11T19:01:19.718Z,8.70
2018-11-11T19:03:53.247Z,7.55
2018-11-11T19:06:23.007Z,7.42
2018-11-11T19:08:52.751Z,9.48
2018-11-11T19:11:22.306Z,7.37
2018-11-11T19:13:51.628Z,8.08
2018-11-11T19:16:21.132Z,9.03
2018-11-11T19:18:50.795Z,9.73
2018-11-11T19:21:20.328Z,8.28
2018-11-11T19:23:49.964Z,8.25
2018-11-11T19:26:20.393Z,6.05
2018-11-11T19:28:49.665Z,6.72
2018-11-11T19:31:20.357Z,6.45
2018-11-11T19:33:52.471Z,6.42
2018-11-11T19:36:22.167Z,7.12
2018-11-11T19:38:52.084Z,9.45
2018-11-11T19:41:24.631Z,7.78
2018-11-11T19:43:54.448Z,7.85
2018-11-11T19:46:23.752Z,6.12
2018-11-11T19:48:53.751Z,6.80
2018-11-11T19:51:26.341Z,6.75
2018-11-11T19:53:57.171Z,4.53
2018-11-11T19:56:27.419Z,4.70
2018-11-11T19:58:56.657Z,5.90
2018-11-11T20:01:26.264Z,5.15
2018-11-11T20:03:56.542Z,7.55
2018-11-11T20:06:26.720Z,5.33
2018-11-11T20:08:56.980Z,4.62
2018-11-11T20:11:26.473Z,5.65
2018-11-11T20:14:02.707Z,4.95
2018-11-11T20:16:35.996Z,7.15
2018-11-11T20:19:10.689Z,8.30
2018-11-11T20:21:41.666Z,7.15
2018-11-11T20:24:11.710Z,4.72
2018-11-11T20:26:44.335Z,5.62
2018-11-11T20:29:13.897Z,5.50
2018-11-11T20:31:46.969Z,5.80
2018-11-11T20:34:17.828Z,5.78
2018-11-11T20:36:48.799Z,4.33
2018-11-11T20:39:20.434Z,4.50
2018-11-11T20:41:50.418Z,5.55
2018-11-11T20:44:25.345Z,5.37
2018-11-11T20:46:57.481Z,5.28
2018-11-11T20:49:30.454Z,4.30
2018-11-11T20:52:01.254Z,4.60
2018-11-11T20:54:34.332Z,5.53
2018-11-11T20:57:05.340Z,5.53
2018-11-11T20:59:34.657Z,8.65
2018-11-11T21:02:04.726Z,10.82
2018-11-11T21:04:39.934Z,12.40
2018-11-11T21:07:14.001Z,7.25
2018-11-11T21:09:44.976Z,9.35
2018-11-11T21:12:14.781Z,14.33
2018-11-11T21:14:50.357Z,7.92
2018-11-11T21:17:29.709Z,6.72
2018-11-11T21:20:05.906Z,6.50
2018-11-11T21:22:35.211Z,11.35
2018-11-11T21:25:07.417Z,12.03
2018-11-11T21:27:42.203Z,13.50
2018-11-11T21:30:16.591Z,12.03
2018-11-11T21:32:46.822Z,5.58
2018-11-11T21:35:19.660Z,10.48
2018-11-11T21:37:51.827Z,4.42
2018-11-11T21:40:23.553Z,3.95
2018-11-11T21:43:01.164Z,13.15
2018-11-11T21:45:32.345Z,5.58
2018-11-11T21:48:06.307Z,5.05
2018-11-11T21:50:36.119Z,7.22
2018-11-11T21:53:29.611Z,4.85
2018-11-11T21:56:04.826Z,4.85
2018-11-11T21:58:34.984Z,6.28
2018-11-11T22:01:05.142Z,4.90
2018-11-11T22:03:35.011Z,4.35
2018-11-11T22:06:08.250Z,5.37
2018-11-11T22:08:37.497Z,6.50
2018-11-11T22:11:10.975Z,6.47
2018-11-11T22:13:44.749Z,5.30
2018-11-11T22:16:17.593Z,7.60
2018-11-11T22:18:49.410Z,6.10
2018-11-11T22:21:21.021Z,5.25
2018-11-11T22:23:51.992Z,5.75
2018-11-11T22:26:23.784Z,5.80
2018-11-11T22:28:54.952Z,6.72
2018-11-11T22:31:26.174Z,5.87
2018-11-11T22:33:59.827Z,5.17
2018-11-11T22:36:30.433Z,5.72
2018-11-11T22:39:01.622Z,7.53
2018-11-11T22:41:33.635Z,6.25
2018-11-11T22:44:04.224Z,6.05
2018-11-11T22:46:40.427Z,6.00
2018-11-11T22:49:15.125Z,4.92
2018-11-11T22:51:45.336Z,5.58
2018-11-11T22:54:21.448Z,5.70
2018-11-11T22:56:56.526Z,5.58
2018-11-11T22:59:25.836Z,7.35
2018-11-11T23:01:58.245Z,5.45
2018-11-11T23:04:30.726Z,5.75
2018-11-11T23:07:03.134Z,6.92
2018-11-11T23:09:32.623Z,7.75
2018-11-11T23:12:03.883Z,5.75
2018-11-11T23:14:33.441Z,6.33
2018-11-11T23:17:02.696Z,6.35
2018-11-11T23:19:33.149Z,8.23
2018-11-11T23:22:03.976Z,8.75
2018-11-11T23:24:35.964Z,9.23
2018-11-11T23:27:08.135Z,6.90
2018-11-11T23:29:39.300Z,8.10
2018-11-11T23:32:10.632Z,11.33
2018-11-11T23:34:41.219Z,8.35
2018-11-11T23:37:11.199Z,8.10
2018-11-11T23:39:42.098Z,8.78
2018-11-11T23:42:11.335Z,9.63
2018-11-11T23:44:42.481Z,7.47
2018-11-11T23:47:13.556Z,10.58
2018-11-11T23:49:45.117Z,7.08
2018-11-11T23:52:15.927Z,7.55
2018-11-11T23:54:45.261Z,6.53
2018-11-11T23:57:15.577Z,7.85
2018-11-11T23:59:48.635Z,8.23
